Time;durP1;ratioP1;P1;durP2;ratioP2;P2;SDS_P1;SDS_P2;PMS_P1;PMS_P2;Temp;Humidity;BMP_temperature;BMP_pressure;BME280_temperature;BME280_humidity;BME280_pressure;Samples;Min_cycle;Max_cycle;Signal;HPM_P1;HPM_P2
2020/12/10 07:08:09;;;;;;;1.25;0.90;;;17.30;67.40;;;;;;3915970;22;15814649;-54
2020/12/10 07:10:40;;;;;;;0.70;0.70;;;17.40;68.00;;;;;;5091389;28;20093;-55
2020/12/10 07:13:05;;;;;;;3.85;0.75;;;17.40;68.40;;;;;;5116130;28;20480;-55
2020/12/10 07:15:31;;;;;;;3.03;0.65;;;17.50;68.10;;;;;;5123686;28;20067;-55
2020/12/10 07:17:58;;;;;;;1.25;0.73;;;17.50;67.90;;;;;;5108819;28;20110;-56
2020/12/10 07:20:24;;;;;;;2.92;0.93;;;17.60;68.10;;;;;;5112643;28;20066;-56
2020/12/10 07:22:52;;;;;;;2.58;0.98;;;17.70;67.60;;;;;;5114754;28;20127;-56
2020/12/10 07:25:18;;;;;;;0.98;0.80;;;17.70;67.50;;;;;;5116693;27;20059;-55
2020/12/10 07:27:44;;;;;;;2.85;0.80;;;17.70;66.90;;;;;;5102892;28;20054;-56
2020/12/10 07:30:13;;;;;;;0.88;0.60;;;17.70;67.10;;;;;;5092643;28;20032;-54
2020/12/10 07:32:40;;;;;;;0.88;0.70;;;17.70;67.40;;;;;;5086213;28;20521;-56
2020/12/10 07:35:35;;;;;;;2.53;0.73;;;17.70;67.50;;;;;;5105703;28;20039;-55
2020/12/10 07:38:14;;;;;;;1.35;0.70;;;17.60;67.30;;;;;;5108960;28;20489;-55
2020/12/10 07:40:40;;;;;;;3.78;1.00;;;17.60;67.60;;;;;;5109614;28;20521;-55
2020/12/10 07:43:07;;;;;;;0.73;0.55;;;17.60;67.40;;;;;;5094090;28;20027;-56
2020/12/10 07:45:34;;;;;;;2.25;0.60;;;17.60;67.30;;;;;;5087998;28;20040;-54
2020/12/10 07:48:04;;;;;;;2.42;0.68;;;17.60;67.10;;;;;;5065375;28;20032;-55
2020/12/10 07:50:35;;;;;;;1.65;0.50;;;17.60;67.20;;;;;;5109241;28;20394;-56
2020/12/10 07:53:07;;;;;;;3.67;1.00;;;17.60;67.30;;;;;;5103350;28;20397;-56
2020/12/10 07:55:37;;;;;;;1.75;0.70;;;17.60;67.20;;;;;;5108205;28;20397;-56
2020/12/10 07:58:30;;;;;;;3.70;0.70;;;17.50;67.30;;;;;;5078815;28;20487;-56
2020/12/10 08:00:58;;;;;;;2.70;0.73;;;17.60;67.20;;;;;;5074626;28;20024;-57
2020/12/10 08:04:02;;;;;;;1.08;0.68;;;17.60;67.20;;;;;;5060786;28;20015;-56
2020/12/10 08:06:50;;;;;;;3.70;0.75;;;17.60;67.00;;;;;;5098035;28;20036;-47
2020/12/10 08:09:17;;;;;;;2.58;0.50;;;17.60;67.80;;;;;;5104216;28;20054;-56
2020/12/10 08:11:55;;;;;;;1.52;0.80;;;17.60;66.90;;;;;;5078504;28;20078;-56
2020/12/10 08:14:32;;;;;;;5.22;0.90;;;17.60;66.80;;;;;;5101832;28;20038;-56
2020/12/10 08:16:58;;;;;;;2.45;0.90;;;17.60;67.00;;;;;;5097277;28;20020;-56
2020/12/10 08:19:32;;;;;;;4.35;1.02;;;17.60;67.00;;;;;;5064266;28;20031;-54
2020/12/10 08:21:59;;;;;;;5.63;0.65;;;17.60;66.70;;;;;;5079907;28;20032;-58
2020/12/10 08:24:55;;;;;;;2.60;0.90;;;17.60;67.60;;;;;;5070955;28;20124;-54
2020/12/10 08:27:25;;;;;;;4.20;0.90;;;17.70;68.10;;;;;;5051229;28;20048;-49
2020/12/10 08:30:20;;;;;;;5.90;0.65;;;17.70;69.00;;;;;;5069908;28;20407;-56
2020/12/10 08:32:50;;;;;;;1.05;0.80;;;17.70;70.40;;;;;;5083257;28;20035;-54
2020/12/10 08:35:17;;;;;;;2.35;0.80;;;17.80;70.00;;;;;;5084443;28;20056;-55
2020/12/10 08:37:43;;;;;;;4.78;0.70;;;17.90;70.20;;;;;;5074475;28;20097;-56
2020/12/10 08:40:09;;;;;;;3.70;0.93;;;17.90;70.80;;;;;;5086794;28;20020;-53
2020/12/10 08:42:35;;;;;;;3.53;1.25;;;17.90;72.00;;;;;;5080902;28;24631;-54
2020/12/10 08:45:01;;;;;;;4.47;0.77;;;17.90;72.20;;;;;;5087886;28;20429;-55
2020/12/10 08:47:27;;;;;;;2.38;1.13;;;17.90;72.50;;;;;;5079333;28;20070;-57
2020/12/10 08:50:28;;;;;;;4.63;0.65;;;18.00;72.50;;;;;;5083189;28;20115;-53
2020/12/10 08:53:03;;;;;;;2.17;1.00;;;18.00;73.00;;;;;;5082275;28;20387;-54
2020/12/10 08:55:41;;;;;;;1.55;0.73;;;18.00;73.30;;;;;;5079032;28;20035;-55
2020/12/10 08:58:08;;;;;;;3.00;0.82;;;17.90;73.30;;;;;;5080989;28;20483;-55
2020/12/10 09:00:40;;;;;;;2.85;0.80;;;17.90;72.80;;;;;;5064568;28;20048;-54
2020/12/10 09:03:06;;;;;;;0.80;0.50;;;17.90;70.70;;;;;;5085713;28;20032;-55
2020/12/10 09:05:31;;;;;;;2.28;0.70;;;17.90;70.10;;;;;;5049476;28;20046;-55
2020/12/10 09:07:57;;;;;;;3.38;0.70;;;17.90;70.70;;;;;;5032493;28;20415;-55
2020/12/10 09:10:26;;;;;;;2.08;0.60;;;17.90;70.80;;;;;;5040635;28;20056;-57
2020/12/10 09:12:52;;;;;;;1.75;0.75;;;18.00;70.50;;;;;;5057392;28;20044;-52
2020/12/10 09:15:17;;;;;;;2.92;1.08;;;18.00;70.10;;;;;;5060565;28;20100;-57
2020/12/10 09:17:43;;;;;;;1.73;0.68;;;18.00;70.50;;;;;;5060800;28;20048;-55
2020/12/10 09:20:10;;;;;;;2.55;0.60;;;18.00;69.30;;;;;;5057705;28;20044;-54
2020/12/10 09:22:35;;;;;;;2.92;0.60;;;18.10;70.10;;;;;;5046448;28;20033;-57
2020/12/10 09:25:01;;;;;;;1.25;0.70;;;18.10;70.10;;;;;;5063631;28;20048;-55
2020/12/10 09:27:28;;;;;;;1.30;0.60;;;18.10;70.30;;;;;;5063865;28;20122;-57
2020/12/10 09:29:53;;;;;;;1.88;0.80;;;18.20;70.30;;;;;;5046516;28;20041;-54
2020/12/10 09:32:19;;;;;;;1.27;0.73;;;18.20;70.20;;;;;;5047882;28;20056;-55
2020/12/10 09:34:44;;;;;;;2.08;0.80;;;18.20;70.20;;;;;;5066175;28;20507;-55
2020/12/10 09:37:10;;;;;;;2.88;0.70;;;18.20;70.20;;;;;;5063285;28;20048;-52
2020/12/10 09:39:39;;;;;;;1.40;0.85;;;18.20;70.20;;;;;;5063371;28;20131;-49
2020/12/10 09:42:12;;;;;;;1.40;0.75;;;18.20;70.10;;;;;;5060417;28;20558;-50
2020/12/10 09:44:37;;;;;;;4.60;0.85;;;18.20;67.60;;;;;;5065455;28;20052;-55
2020/12/10 09:47:06;;;;;;;3.13;1.20;;;18.30;68.20;;;;;;5062586;28;20052;-56
2020/12/10 09:49:36;;;;;;;4.13;0.82;;;18.40;69.30;;;;;;5061926;28;20131;-55
2020/12/10 09:52:03;;;;;;;4.22;0.90;;;18.40;69.30;;;;;;5059279;28;20051;-52
2020/12/10 09:57:24;;;;;;;2.63;0.70;;;18.40;69.50;;;;;;5055864;28;20127;-54
2020/12/10 09:59:50;;;;;;;1.77;0.85;;;18.40;69.50;;;;;;5064414;28;20055;-49
2020/12/10 10:02:18;;;;;;;2.45;1.15;;;18.40;69.60;;;;;;5049233;28;20052;-54
2020/12/10 10:04:44;;;;;;;1.27;0.80;;;18.40;69.60;;;;;;5062950;28;20108;-55
2020/12/10 10:07:10;;;;;;;3.20;1.00;;;18.40;69.40;;;;;;5063358;28;20049;-55
2020/12/10 10:09:38;;;;;;;2.28;0.82;;;18.40;69.60;;;;;;5065983;28;20170;-55
2020/12/10 10:12:05;;;;;;;3.35;0.88;;;18.40;69.60;;;;;;5066376;28;20097;-55
2020/12/10 10:14:32;;;;;;;2.33;0.90;;;18.50;69.50;;;;;;5046379;28;20566;-54
2020/12/10 10:16:58;;;;;;;1.02;0.70;;;18.50;69.50;;;;;;5058212;28;20089;-50
2020/12/10 10:19:23;;;;;;;1.42;0.95;;;18.50;69.40;;;;;;5061186;28;20052;-51
2020/12/10 10:21:50;;;;;;;2.22;0.88;;;18.50;69.50;;;;;;5063410;28;20039;-53
2020/12/10 10:24:15;;;;;;;1.02;0.60;;;18.50;69.30;;;;;;5063919;28;20048;-56
2020/12/10 10:26:41;;;;;;;2.15;0.88;;;18.50;69.70;;;;;;5062342;28;20483;-55
2020/12/10 10:29:08;;;;;;;3.97;1.30;;;18.50;69.10;;;;;;5061290;28;20044;-53
2020/12/10 10:31:37;;;;;;;2.90;0.80;;;18.50;69.10;;;;;;5048819;28;20105;-53
2020/12/10 10:34:03;;;;;;;3.15;0.70;;;18.50;69.00;;;;;;5043162;28;20404;-54
2020/12/10 10:36:28;;;;;;;1.38;0.93;;;18.50;69.10;;;;;;5065458;28;20048;-55
2020/12/10 10:38:56;;;;;;;1.35;0.82;;;18.40;69.10;;;;;;5068497;28;20051;-54
2020/12/10 10:41:29;;;;;;;3.90;0.82;;;18.40;69.30;;;;;;5065558;28;20556;-63
2020/12/10 10:43:54;;;;;;;3.85;0.85;;;18.50;69.80;;;;;;5066003;28;20044;-56
2020/12/10 10:46:29;;;;;;;1.50;0.60;;;18.50;69.90;;;;;;5065703;28;20072;-58
2020/12/10 10:48:58;;;;;;;1.55;1.13;;;18.50;69.00;;;;;;5040769;28;20459;-57
2020/12/10 10:51:25;;;;;;;2.97;0.70;;;18.50;69.30;;;;;;4698424;28;9999937;-58
2020/12/10 10:53:52;;;;;;;1.92;0.77;;;18.50;69.20;;;;;;5041217;28;20507;-55
2020/12/10 10:56:25;;;;;;;4.30;0.68;;;18.50;69.20;;;;;;5041125;28;20056;-57
2020/12/10 10:58:50;;;;;;;1.98;0.80;;;18.60;69.00;;;;;;5060543;28;20076;-59
2020/12/10 11:01:36;;;;;;;2.45;0.80;;;18.60;69.20;;;;;;5063368;28;20553;-56
2020/12/10 11:04:06;;;;;;;1.70;0.77;;;18.70;69.20;;;;;;5062458;28;20514;-59
2020/12/10 11:06:34;;;;;;;6.05;0.80;;;18.60;69.50;;;;;;5056907;28;20052;-56
2020/12/10 11:09:00;;;;;;;2.88;0.80;;;18.60;69.40;;;;;;5060607;28;20629;-58
2020/12/10 11:11:26;;;;;;;1.92;0.73;;;18.60;69.50;;;;;;5043085;28;20041;-56
2020/12/10 11:13:52;;;;;;;4.45;0.82;;;18.60;69.60;;;;;;5062327;28;20066;-56
2020/12/10 11:16:21;;;;;;;4.63;0.73;;;18.60;69.20;;;;;;4710460;28;10000118;-56
2020/12/10 11:18:50;;;;;;;8.18;0.80;;;18.60;69.00;;;;;;5056632;28;20040;-55
2020/12/10 11:21:15;;;;;;;7.43;0.70;;;18.50;69.20;;;;;;5062371;28;20060;-53
2020/12/10 11:23:42;;;;;;;6.45;0.65;;;18.50;69.20;;;;;;5057647;28;20469;-55
2020/12/10 11:26:20;;;;;;;4.15;0.65;;;18.60;69.30;;;;;;5034667;28;20036;-59
2020/12/10 11:28:45;;;;;;;1.70;0.63;;;18.60;69.20;;;;;;5039146;28;20045;-55
2020/12/10 11:31:11;;;;;;;6.40;0.70;;;18.50;69.20;;;;;;5052974;28;20064;-57
2020/12/10 11:33:37;;;;;;;1.75;0.85;;;18.50;68.80;;;;;;5051353;28;20462;-56
2020/12/10 11:36:04;;;;;;;2.38;0.73;;;18.60;68.90;;;;;;5039792;28;20136;-56
2020/12/10 11:38:30;;;;;;;7.07;0.60;;;18.60;68.80;;;;;;5051308;28;20530;-59
2020/12/10 11:40:56;;;;;;;6.97;0.80;;;18.60;68.60;;;;;;5052354;28;20044;-55
2020/12/10 11:43:22;;;;;;;6.10;0.80;;;18.60;68.40;;;;;;5040461;28;20523;-55
2020/12/10 11:45:48;;;;;;;4.25;0.70;;;18.60;68.40;;;;;;5046065;28;20068;-57
2020/12/10 11:48:19;;;;;;;4.70;0.88;;;18.60;68.40;;;;;;5044726;28;20048;-54
2020/12/10 11:51:00;;;;;;;5.57;0.90;;;18.60;68.40;;;;;;5056260;28;20369;-55
2020/12/10 11:53:32;;;;;;;1.65;0.93;;;18.50;68.50;;;;;;5056496;28;20586;-56
2020/12/10 11:55:58;;;;;;;2.15;1.17;;;18.50;69.40;;;;;;5063537;28;20499;-54
2020/12/10 11:58:23;;;;;;;7.50;1.00;;;18.50;68.60;;;;;;5066392;28;20045;-58
2020/12/10 12:00:49;;;;;;;5.47;0.60;;;18.50;68.50;;;;;;4756010;22;10002414;-55
2020/12/10 12:03:16;;;;;;;5.07;0.75;;;18.50;68.60;;;;;;5030469;28;20367;-54
2020/12/10 12:05:41;;;;;;;3.17;0.75;;;18.50;68.40;;;;;;4987675;28;20035;-51
2020/12/10 12:08:07;;;;;;;4.57;1.17;;;18.50;68.30;;;;;;4988138;28;20046;-53
2020/12/10 12:10:33;;;;;;;4.07;1.02;;;18.50;68.30;;;;;;4986803;28;20505;-52
2020/12/10 12:12:58;;;;;;;4.45;0.82;;;18.50;69.80;;;;;;4986899;28;20039;-52
2020/12/10 12:15:24;;;;;;;3.50;0.63;;;18.50;70.10;;;;;;4983952;28;20084;-55
2020/12/10 12:17:50;;;;;;;5.13;0.90;;;18.50;70.00;;;;;;4985470;28;20138;-54
2020/12/10 12:20:15;;;;;;;1.48;0.60;;;18.50;69.80;;;;;;4983458;28;20065;-55
2020/12/10 12:22:41;;;;;;;4.20;0.82;;;18.50;69.40;;;;;;4991765;28;20185;-53
2020/12/10 12:25:07;;;;;;;3.38;0.80;;;18.50;69.30;;;;;;4981538;28;20141;-53
2020/12/10 12:27:34;;;;;;;2.38;0.60;;;18.40;69.00;;;;;;4971408;28;20161;-54
2020/12/10 12:30:00;;;;;;;5.05;0.70;;;18.40;68.80;;;;;;4983895;28;20138;-52
2020/12/10 12:32:25;;;;;;;2.70;0.82;;;18.40;68.70;;;;;;4980998;28;20137;-55
2020/12/10 12:34:51;;;;;;;1.98;0.73;;;18.40;68.50;;;;;;4983567;28;20780;-52
2020/12/10 12:37:16;;;;;;;5.72;1.02;;;18.40;68.40;;;;;;4983739;28;20054;-55
2020/12/10 12:39:42;;;;;;;7.65;0.70;;;18.40;68.30;;;;;;4984675;28;20073;-54
2020/12/10 12:42:08;;;;;;;1.83;0.80;;;18.40;68.40;;;;;;4986422;28;20058;-55
2020/12/10 12:44:33;;;;;;;2.63;0.80;;;18.40;68.40;;;;;;4980772;28;20049;-53
2020/12/10 12:46:59;;;;;;;3.88;0.70;;;18.50;68.10;;;;;;4979967;28;20109;-54
2020/12/10 12:49:24;;;;;;;3.08;0.60;;;18.50;68.30;;;;;;5000907;28;20045;-54
2020/12/10 12:52:04;;;;;;;2.17;0.70;;;18.40;68.50;;;;;;5015813;28;20029;-54
2020/12/10 12:54:31;;;;;;;2.33;1.00;;;18.50;68.40;;;;;;5025469;28;20041;-56
2020/12/10 12:56:56;;;;;;;2.90;0.68;;;18.50;68.30;;;;;;5004840;28;20112;-54
2020/12/10 12:59:22;;;;;;;5.60;0.80;;;18.50;68.20;;;;;;5024694;28;20520;-54
2020/12/10 13:02:08;;;;;;;1.80;0.93;;;18.50;68.20;;;;;;5023992;28;20045;-56
2020/12/10 13:04:34;;;;;;;1.58;0.65;;;18.50;68.20;;;;;;5024243;28;20649;-56
2020/12/10 13:06:59;;;;;;;3.28;0.80;;;18.50;68.00;;;;;;5018724;28;20042;-54
2020/12/10 13:09:29;;;;;;;1.25;0.70;;;18.50;68.20;;;;;;5021346;28;20049;-57
2020/12/10 13:11:58;;;;;;;2.08;0.65;;;18.50;68.10;;;;;;5028940;28;20052;-56
2020/12/10 13:14:24;;;;;;;2.97;0.70;;;18.50;68.20;;;;;;5025138;28;20037;-54
2020/12/10 13:16:50;;;;;;;2.15;0.80;;;18.50;68.10;;;;;;5008558;28;20091;-58
2020/12/10 13:19:15;;;;;;;2.65;0.60;;;18.50;68.10;;;;;;5025740;28;20124;-57
2020/12/10 13:21:44;;;;;;;1.30;0.73;;;18.50;68.00;;;;;;5025088;28;20124;-54
2020/12/10 13:24:13;;;;;;;2.47;0.70;;;18.50;67.90;;;;;;5009591;28;20124;-57
2020/12/10 13:27:00;;;;;;;1.02;0.65;;;18.50;67.90;;;;;;5011316;28;20080;-54
2020/12/10 13:29:25;;;;;;;2.38;0.98;;;18.50;67.90;;;;;;5025008;28;20053;-55
2020/12/10 13:32:11;;;;;;;0.70;0.63;;;18.50;67.90;;;;;;5024876;28;20512;-53
2020/12/10 13:34:38;;;;;;;2.50;0.82;;;18.50;67.90;;;;;;5025489;28;20056;-55
2020/12/10 13:37:23;;;;;;;1.58;0.77;;;18.50;67.90;;;;;;5023491;28;20107;-52
2020/12/10 13:40:10;;;;;;;0.82;0.55;;;18.50;67.80;;;;;;5026068;28;20041;-56
2020/12/10 13:42:36;;;;;;;1.13;0.68;;;18.50;67.70;;;;;;5025004;28;20516;-54
2020/12/10 13:45:05;;;;;;;0.80;0.60;;;18.50;67.70;;;;;;5030661;28;20595;-51
2020/12/10 13:48:13;;;;;;;1.48;0.60;;;18.60;67.60;;;;;;5027282;28;20056;-52
2020/12/10 13:51:00;;;;;;;0.77;0.45;;;18.50;67.50;;;;;;5027921;28;20547;-52
2020/12/10 13:53:26;;;;;;;2.42;0.65;;;18.50;67.60;;;;;;5027617;28;20124;-53
2020/12/10 13:55:52;;;;;;;1.17;0.52;;;18.50;67.50;;;;;;5026251;28;20048;-54
2020/12/10 13:58:17;;;;;;;1.27;0.63;;;18.50;67.60;;;;;;5026708;28;20053;-52
2020/12/10 14:00:43;;;;;;;2.13;0.60;;;18.50;67.80;;;;;;5027712;28;20129;-52
2020/12/10 14:03:09;;;;;;;4.00;0.68;;;18.50;68.10;;;;;;5029824;28;20092;-51
2020/12/10 14:05:35;;;;;;;3.92;0.70;;;18.50;68.40;;;;;;5028031;28;20049;-54
2020/12/10 14:08:01;;;;;;;1.33;0.70;;;18.50;68.30;;;;;;5006917;28;20041;-53
2020/12/10 14:10:27;;;;;;;2.85;0.40;;;18.50;68.60;;;;;;5028836;28;20048;-54
2020/12/10 14:12:52;;;;;;;3.33;0.60;;;18.40;68.60;;;;;;4673892;28;10000808;-54
2020/12/10 14:15:44;;;;;;;7.38;0.85;;;18.40;68.90;;;;;;5028745;28;20034;-50
2020/12/10 14:18:29;;;;;;;4.00;0.60;;;18.50;69.20;;;;;;5025779;28;20582;-53
2020/12/10 14:21:11;;;;;;;5.95;0.57;;;18.40;69.20;;;;;;5011368;28;20064;-55
2020/12/10 14:23:39;;;;;;;1.50;0.50;;;18.40;69.20;;;;;;5024409;28;20071;-54
2020/12/10 14:26:29;;;;;;;2.15;0.55;;;18.40;69.20;;;;;;5008770;28;20060;-55
2020/12/10 14:29:15;;;;;;;0.85;0.40;;;18.40;69.10;;;;;;5027575;28;20404;-53
2020/12/10 14:31:44;;;;;;;2.58;0.57;;;18.50;69.20;;;;;;5024518;28;20084;-57
2020/12/10 14:34:11;;;;;;;1.40;0.52;;;18.40;69.40;;;;;;5027240;28;20117;-50
2020/12/10 14:36:37;;;;;;;2.20;0.40;;;18.40;69.40;;;;;;5027041;28;20050;-54
2020/12/10 14:39:02;;;;;;;1.77;0.70;;;18.40;69.60;;;;;;5029866;28;20041;-58
2020/12/10 14:41:28;;;;;;;1.45;0.82;;;18.40;69.70;;;;;;5026755;28;20420;-57
2020/12/10 14:43:53;;;;;;;3.10;0.40;;;18.30;69.60;;;;;;5026140;28;20172;-55
2020/12/10 14:46:21;;;;;;;0.57;0.50;;;18.40;69.60;;;;;;5021116;28;20484;-50
2020/12/10 14:49:02;;;;;;;2.70;0.55;;;18.40;69.60;;;;;;4992059;28;20080;-53
2020/12/10 14:51:29;;;;;;;1.25;0.60;;;18.40;69.50;;;;;;5015932;28;20049;-50
2020/12/10 14:54:15;;;;;;;3.38;0.60;;;18.40;69.30;;;;;;5015355;28;20048;-54
2020/12/10 14:56:41;;;;;;;2.38;0.60;;;18.40;69.30;;;;;;5011928;28;20052;-52
2020/12/10 14:59:07;;;;;;;2.05;0.80;;;18.40;69.30;;;;;;5023654;28;20041;-54
2020/12/10 15:01:32;;;;;;;2.60;0.70;;;18.40;68.90;;;;;;5026015;28;20058;-56
2020/12/10 15:03:58;;;;;;;2.63;1.00;;;18.40;69.10;;;;;;5022365;28;20057;-54
2020/12/10 15:06:24;;;;;;;6.63;0.60;;;18.40;69.20;;;;;;5021990;28;20140;-54
2020/12/10 15:08:49;;;;;;;4.90;0.40;;;18.40;69.20;;;;;;5021090;28;20046;-55
2020/12/10 15:11:41;;;;;;;3.28;0.50;;;18.30;69.00;;;;;;5024925;28;20041;-53
2020/12/10 15:14:07;;;;;;;2.53;0.60;;;18.40;68.90;;;;;;5021863;28;20053;-54
2020/12/10 15:16:33;;;;;;;2.25;0.70;;;18.40;68.80;;;;;;5018469;28;20115;-55
2020/12/10 15:18:58;;;;;;;5.13;0.63;;;18.40;68.60;;;;;;5024163;28;20061;-59
2020/12/10 15:21:25;;;;;;;1.90;0.63;;;18.40;68.80;;;;;;5025299;28;20042;-55
2020/12/10 15:23:51;;;;;;;1.10;0.57;;;18.30;68.90;;;;;;5008513;28;20053;-55
2020/12/10 15:26:16;;;;;;;3.15;0.60;;;18.30;68.80;;;;;;5023597;28;20580;-52
2020/12/10 15:28:44;;;;;;;0.90;0.60;;;18.30;68.70;;;;;;5024970;28;20408;-52
2020/12/10 15:31:10;;;;;;;2.72;0.60;;;18.40;68.60;;;;;;5026897;28;20049;-53
2020/12/10 15:33:36;;;;;;;1.58;0.70;;;18.40;68.90;;;;;;5021563;28;20067;-58
2020/12/10 15:36:07;;;;;;;1.67;0.40;;;18.30;69.30;;;;;;4680272;28;10000123;-55
2020/12/10 15:38:36;;;;;;;3.53;0.60;;;18.40;69.40;;;;;;5023703;28;20103;-55
2020/12/10 15:41:02;;;;;;;7.53;1.00;;;18.40;69.90;;;;;;5026840;28;20045;-56
2020/12/10 15:43:49;;;;;;;3.65;0.63;;;18.50;70.30;;;;;;5022746;28;20095;-51
2020/12/10 15:46:23;;;;;;;2.42;0.60;;;18.50;70.20;;;;;;5026127;28;20053;-51
2020/12/10 15:48:49;;;;;;;3.25;0.68;;;18.50;70.20;;;;;;5027483;28;20401;-54
2020/12/10 15:51:21;;;;;;;0.98;0.65;;;18.60;70.20;;;;;;5028835;28;20566;-52
2020/12/10 15:54:06;;;;;;;1.55;0.60;;;18.50;70.10;;;;;;5025706;28;20042;-53
2020/12/10 15:56:32;;;;;;;1.15;0.70;;;18.40;70.20;;;;;;5027100;28;20077;-52
2020/12/10 15:58:59;;;;;;;2.78;0.70;;;18.40;70.30;;;;;;5025647;28;20134;-57
2020/12/10 16:01:26;;;;;;;0.77;0.47;;;18.40;70.30;;;;;;5022361;28;20049;-53
2020/12/10 16:03:56;;;;;;;8.88;0.70;;;18.40;70.30;;;;;;5028102;28;20164;-53
2020/12/10 16:06:24;;;;;;;1.65;0.50;;;18.40;70.40;;;;;;5028501;28;20108;-50
2020/12/10 16:09:08;;;;;;;2.35;0.47;;;18.40;70.20;;;;;;5027460;28;20041;-50
2020/12/10 16:11:54;;;;;;;1.90;0.60;;;18.40;70.20;;;;;;5026774;28;20606;-51
2020/12/10 16:14:19;;;;;;;0.68;0.50;;;18.50;70.00;;;;;;5027823;28;20416;-55
2020/12/10 16:16:45;;;;;;;4.80;0.70;;;18.40;70.00;;;;;;5025986;28;20026;-53
2020/12/10 16:19:23;;;;;;;1.40;0.65;;;18.40;69.90;;;;;;5018397;28;20441;-54
2020/12/10 16:21:49;;;;;;;0.77;0.45;;;18.40;69.90;;;;;;5014372;28;20402;-55
2020/12/10 16:24:14;;;;;;;2.10;0.60;;;18.50;69.90;;;;;;5028025;28;20026;-51
2020/12/10 16:26:40;;;;;;;3.08;0.80;;;18.40;69.90;;;;;;5029892;28;20040;-50
2020/12/10 16:29:06;;;;;;;2.00;0.52;;;18.40;70.10;;;;;;5028856;28;20030;-52
2020/12/10 16:31:31;;;;;;;5.72;0.60;;;18.40;70.20;;;;;;5026067;28;20041;-52
2020/12/10 16:33:57;;;;;;;1.65;0.70;;;18.40;70.90;;;;;;5027429;28;20432;-54
2020/12/10 16:36:22;;;;;;;1.83;0.60;;;18.40;70.00;;;;;;5020767;28;20493;-55
2020/12/10 16:38:48;;;;;;;3.22;0.70;;;18.40;70.10;;;;;;5024379;28;20045;-51
2020/12/10 16:41:20;;;;;;;2.88;0.50;;;18.40;70.90;;;;;;5024349;28;20103;-52
2020/12/10 16:43:45;;;;;;;4.88;0.52;;;18.40;69.90;;;;;;5023927;28;20041;-51
2020/12/10 16:46:11;;;;;;;3.00;0.60;;;18.40;69.90;;;;;;5024993;28;20049;-53
2020/12/10 16:48:37;;;;;;;8.98;3.58;;;18.40;69.80;;;;;;5026602;28;20045;-51
2020/12/10 16:51:06;;;;;;;8.25;1.20;;;18.30;69.80;;;;;;5029405;28;20065;-53
2020/12/10 16:53:32;;;;;;;3.38;0.80;;;18.30;69.80;;;;;;5026051;28;20393;-47
2020/12/10 16:55:57;;;;;;;0.68;0.60;;;18.40;69.50;;;;;;5027187;28;20052;-54
2020/12/10 16:58:23;;;;;;;5.75;0.65;;;18.40;69.30;;;;;;5026420;28;20048;-53
2020/12/10 17:00:49;;;;;;;4.97;0.93;;;18.40;69.00;;;;;;5025611;28;20460;-54
2020/12/10 17:03:14;;;;;;;5.32;0.82;;;18.50;68.90;;;;;;5028503;28;20068;-54
2020/12/10 17:05:40;;;;;;;3.20;0.75;;;18.50;68.60;;;;;;5025864;28;20057;-50
2020/12/10 17:08:05;;;;;;;2.30;0.68;;;18.60;68.40;;;;;;5026831;28;20049;-54
2020/12/10 17:10:31;;;;;;;3.97;0.60;;;18.60;68.30;;;;;;5026344;28;20132;-54
2020/12/10 17:12:58;;;;;;;1.10;0.50;;;18.60;68.10;;;;;;5003816;28;20049;-53
2020/12/10 17:15:24;;;;;;;5.53;1.00;;;18.60;68.20;;;;;;5026855;28;20053;-54
2020/12/10 17:17:49;;;;;;;3.15;0.50;;;18.60;68.40;;;;;;5019651;28;20534;-53
2020/12/10 17:20:15;;;;;;;5.18;1.00;;;18.60;68.20;;;;;;5024483;28;20045;-53
2020/12/10 17:22:40;;;;;;;4.30;0.73;;;18.60;69.00;;;;;;5024465;28;20053;-52
2020/12/10 17:25:06;;;;;;;5.65;0.68;;;18.60;68.40;;;;;;5029366;28;20120;-51
2020/12/10 17:27:32;;;;;;;2.22;0.70;;;18.60;68.40;;;;;;5025312;28;20041;-57
2020/12/10 17:29:57;;;;;;;2.10;0.75;;;18.60;68.20;;;;;;5026109;28;20389;-56
2020/12/10 17:32:23;;;;;;;1.92;0.60;;;18.60;68.30;;;;;;5024452;28;20064;-54
2020/12/10 17:34:48;;;;;;;2.55;0.80;;;18.60;68.20;;;;;;5023753;28;20068;-56
2020/12/10 17:37:14;;;;;;;2.90;0.60;;;18.60;68.20;;;;;;5025772;28;20033;-54
2020/12/10 17:39:39;;;;;;;9.45;4.53;;;18.60;67.40;;;;;;5023505;28;20083;-52
2020/12/10 17:42:05;;;;;;;16.58;9.25;;;18.70;67.20;;;;;;5024340;28;20050;-54
2020/12/10 17:44:31;;;;;;;14.43;9.73;;;18.60;67.70;;;;;;5025624;28;20041;-55
2020/12/10 17:46:56;;;;;;;13.98;9.70;;;18.60;67.80;;;;;;5024087;28;20080;-53
2020/12/10 17:49:23;;;;;;;16.15;11.15;;;18.60;67.60;;;;;;5015283;28;20045;-51
2020/12/10 17:51:48;;;;;;;13.20;8.73;;;18.60;67.40;;;;;;5015877;28;20044;-56
2020/12/10 17:54:14;;;;;;;14.57;9.38;;;18.60;67.30;;;;;;5020229;28;20049;-53
2020/12/10 17:56:40;;;;;;;13.25;9.95;;;18.60;67.30;;;;;;5016294;28;20073;-58
2020/12/10 17:59:05;;;;;;;13.40;9.75;;;18.60;67.50;;;;;;5017146;28;20053;-51
2020/12/10 18:01:32;;;;;;;11.45;7.55;;;18.60;67.60;;;;;;5019127;28;20080;-51
2020/12/10 18:03:59;;;;;;;11.98;8.90;;;18.60;67.10;;;;;;5022409;28;20053;-55
2020/12/10 18:06:24;;;;;;;11.70;7.40;;;18.70;67.10;;;;;;5015680;28;20041;-53
2020/12/10 18:08:50;;;;;;;9.93;7.40;;;18.70;66.60;;;;;;5018429;28;20377;-53
2020/12/10 18:11:17;;;;;;;8.50;7.00;;;18.70;66.60;;;;;;5018484;28;20046;-54
2020/12/10 18:13:43;;;;;;;11.30;5.95;;;18.70;66.80;;;;;;5016961;28;20150;-53
2020/12/10 18:16:08;;;;;;;9.75;5.85;;;18.60;66.70;;;;;;5013863;28;20452;-51
2020/12/10 18:18:34;;;;;;;7.05;5.95;;;18.70;66.10;;;;;;5018136;28;20532;-54
2020/12/10 18:20:59;;;;;;;11.05;6.55;;;18.60;66.90;;;;;;5021683;28;20099;-54
2020/12/10 18:23:25;;;;;;;9.43;6.80;;;18.60;66.90;;;;;;5018529;28;20119;-54
2020/12/10 18:25:51;;;;;;;8.45;5.25;;;18.70;66.20;;;;;;5015026;28;20137;-54
2020/12/10 18:28:17;;;;;;;6.90;4.85;;;18.70;66.50;;;;;;5015802;28;20061;-52
2020/12/10 18:30:42;;;;;;;8.65;6.03;;;18.70;66.40;;;;;;5017456;28;20098;-49
2020/12/10 18:33:08;;;;;;;9.35;6.05;;;18.80;66.50;;;;;;5023437;28;20073;-50
2020/12/10 18:35:33;;;;;;;6.47;5.10;;;18.80;66.90;;;;;;5013045;28;20045;-49
2020/12/10 18:37:59;;;;;;;6.25;5.18;;;18.70;66.00;;;;;;5019906;28;20046;-48
2020/12/10 18:40:25;;;;;;;7.68;5.18;;;18.70;66.20;;;;;;5016820;28;20038;-48
2020/12/10 18:42:53;;;;;;;9.05;5.15;;;18.70;66.30;;;;;;5016079;28;20586;-48
2020/12/10 18:45:20;;;;;;;7.13;5.13;;;18.70;66.30;;;;;;5014789;28;20045;-52
2020/12/10 18:47:45;;;;;;;4.97;4.57;;;18.80;66.80;;;;;;5013836;28;20058;-46
2020/12/10 18:50:11;;;;;;;10.55;5.13;;;18.70;66.50;;;;;;5017141;28;20112;-50
2020/12/10 18:52:39;;;;;;;7.20;4.18;;;18.70;67.50;;;;;;5018801;28;20052;-47
2020/12/10 18:55:11;;;;;;;5.13;4.22;;;18.70;66.60;;;;;;5013718;28;20141;-48
2020/12/10 18:57:41;;;;;;;9.02;4.18;;;18.80;66.90;;;;;;5014365;28;20053;-48
2020/12/10 19:00:07;;;;;;;5.35;4.18;;;18.70;66.80;;;;;;5015270;28;20056;-48
2020/12/10 19:03:06;;;;;;;5.38;4.43;;;18.80;67.40;;;;;;5019386;28;20041;-49
2020/12/10 19:05:25;;;;;;;8.23;5.50;;;18.70;66.60;;;;;;5010832;28;20128;-48
2020/12/10 19:07:51;;;;;;;5.07;4.53;;;18.70;67.70;;;;;;5014198;28;20056;-50
2020/12/10 19:10:19;;;;;;;8.75;4.40;;;18.70;66.90;;;;;;5013112;28;20056;-51
2020/12/10 19:12:45;;;;;;;5.55;4.15;;;18.80;67.40;;;;;;5015024;28;20041;-53
2020/12/10 19:15:11;;;;;;;7.05;5.50;;;18.80;67.20;;;;;;5018088;28;20051;-48
2020/12/10 19:17:36;;;;;;;5.10;4.30;;;18.80;68.10;;;;;;5016820;28;20080;-48
2020/12/10 19:20:02;;;;;;;5.72;4.10;;;18.80;67.20;;;;;;5018676;28;20152;-47
2020/12/10 19:22:28;;;;;;;7.43;4.75;;;18.90;67.10;;;;;;5021150;28;20517;-48
2020/12/10 19:24:54;;;;;;;8.98;4.55;;;18.90;67.20;;;;;;5011837;28;20095;-48
2020/12/10 19:27:19;;;;;;;13.02;4.03;;;18.90;66.50;;;;;;5018642;28;20053;-49
2020/12/10 19:29:45;;;;;;;8.50;4.47;;;18.90;66.70;;;;;;5013759;28;20050;-52
2020/12/10 19:32:10;;;;;;;4.47;3.90;;;18.90;66.70;;;;;;5015942;28;20148;-47
2020/12/10 19:34:36;;;;;;;6.78;3.63;;;19.00;66.80;;;;;;5016682;28;20054;-48
2020/12/10 19:37:02;;;;;;;8.95;4.25;;;19.00;66.60;;;;;;5014293;28;20049;-46
2020/12/10 19:39:27;;;;;;;5.75;3.90;;;19.00;66.50;;;;;;5012831;28;20072;-48
2020/12/10 19:41:53;;;;;;;4.32;3.67;;;19.00;66.50;;;;;;5014746;28;20042;-47
2020/12/10 19:44:19;;;;;;;5.00;3.53;;;19.10;66.50;;;;;;5014678;28;20224;-49
2020/12/10 19:46:45;;;;;;;8.43;3.80;;;19.10;66.30;;;;;;5013243;28;20053;-47
2020/12/10 19:49:11;;;;;;;6.50;3.80;;;19.10;66.40;;;;;;5018394;28;20053;-46
2020/12/10 19:51:36;;;;;;;4.20;3.78;;;19.10;66.50;;;;;;5011349;28;20589;-48
2020/12/10 19:54:03;;;;;;;5.13;4.03;;;19.10;66.00;;;;;;5012568;28;20054;-47
2020/12/10 19:56:29;;;;;;;5.10;3.80;;;19.00;67.00;;;;;;5019020;28;20042;-50
2020/12/10 19:58:55;;;;;;;7.70;4.00;;;19.00;66.60;;;;;;5014384;28;20049;-48
2020/12/10 20:01:21;;;;;;;3.30;3.00;;;19.00;66.60;;;;;;5014160;28;20454;-47
2020/12/10 20:03:47;;;;;;;3.45;3.00;;;19.10;66.50;;;;;;5018353;28;20053;-46